sensor_id;sensor_type;location;lat;lon;timestamp;pressure;altitude;pressure_sealevel;temperature;humidity
69909;BME280;57190;47.918;8.112;2022-11-15T00:00:53;90644.34;;;6.11;80.36
69909;BME280;57190;47.918;8.112;2022-11-15T00:03:21;90633.00;;;6.16;80.76
69909;BME280;57190;47.918;8.112;2022-11-15T00:05:47;90645.53;;;6.21;80.30
69909;BME280;57190;47.918;8.112;2022-11-15T00:08:13;90640.75;;;6.23;80.33
69909;BME280;57190;47.918;8.112;2022-11-15T00:10:39;90640.22;;;6.21;80.43
69909;BME280;57190;47.918;8.112;2022-11-15T00:13:09;90637.31;;;6.22;79.92
69909;BME280;57190;47.918;8.112;2022-11-15T00:15:39;90627.59;;;6.28;79.74
69909;BME280;57190;47.918;8.112;2022-11-15T00:18:06;90626.78;;;6.27;80.00
69909;BME280;57190;47.918;8.112;2022-11-15T00:20:35;90624.94;;;6.28;79.09
69909;BME280;57190;47.918;8.112;2022-11-15T00:23:03;90622.28;;;6.28;79.77
69909;BME280;57190;47.918;8.112;2022-11-15T00:25:29;90617.03;;;6.33;78.78
69909;BME280;57190;47.918;8.112;2022-11-15T00:27:58;90617.34;;;6.37;79.24
69909;BME280;57190;47.918;8.112;2022-11-15T00:30:25;90617.91;;;6.39;78.82
69909;BME280;57190;47.918;8.112;2022-11-15T00:32:50;90612.31;;;6.35;78.98
69909;BME280;57190;47.918;8.112;2022-11-15T00:35:16;90617.13;;;6.16;79.06
69909;BME280;57190;47.918;8.112;2022-11-15T00:37:41;90620.63;;;6.00;79.28
69909;BME280;57190;47.918;8.112;2022-11-15T00:40:07;90619.63;;;5.89;80.01
69909;BME280;57190;47.918;8.112;2022-11-15T00:42:33;90617.25;;;5.87;79.51
69909;BME280;57190;47.918;8.112;2022-11-15T00:44:59;90613.25;;;5.85;80.32
69909;BME280;57190;47.918;8.112;2022-11-15T00:47:24;90621.97;;;5.85;81.01
69909;BME280;57190;47.918;8.112;2022-11-15T00:49:50;90614.13;;;5.90;81.17
69909;BME280;57190;47.918;8.112;2022-11-15T00:52:16;90615.88;;;5.85;80.88
69909;BME280;57190;47.918;8.112;2022-11-15T00:54:41;90610.91;;;5.88;80.24
69909;BME280;57190;47.918;8.112;2022-11-15T00:57:06;90613.28;;;5.90;80.14
69909;BME280;57190;47.918;8.112;2022-11-15T00:59:32;90612.09;;;5.97;80.51
69909;BME280;57190;47.918;8.112;2022-11-15T01:01:57;90605.34;;;6.07;80.14
69909;BME280;57190;47.918;8.112;2022-11-15T01:04:23;90607.00;;;6.13;80.06
69909;BME280;57190;47.918;8.112;2022-11-15T01:06:48;90601.22;;;6.16;79.43
69909;BME280;57190;47.918;8.112;2022-11-15T01:09:14;90601.75;;;6.18;79.35
69909;BME280;57190;47.918;8.112;2022-11-15T01:11:39;90599.38;;;6.17;79.67
69909;BME280;57190;47.918;8.112;2022-11-15T01:14:05;90596.72;;;6.17;79.62
69909;BME280;57190;47.918;8.112;2022-11-15T01:16:30;90589.50;;;6.12;79.13
69909;BME280;57190;47.918;8.112;2022-11-15T01:18:58;90589.50;;;6.12;79.64
69909;BME280;57190;47.918;8.112;2022-11-15T01:21:23;90587.69;;;6.12;79.59
69909;BME280;57190;47.918;8.112;2022-11-15T01:23:52;90585.81;;;6.13;79.54
69909;BME280;57190;47.918;8.112;2022-11-15T01:26:18;90591.13;;;6.13;79.81
69909;BME280;57190;47.918;8.112;2022-11-15T01:28:44;90592.16;;;6.12;80.16
69909;BME280;57190;47.918;8.112;2022-11-15T01:31:15;90592.22;;;6.17;79.64
69909;BME280;57190;47.918;8.112;2022-11-15T01:33:41;90590.38;;;6.18;79.61
69909;BME280;57190;47.918;8.112;2022-11-15T01:36:12;90594.81;;;6.12;80.16
69909;BME280;57190;47.918;8.112;2022-11-15T01:38:38;90582.13;;;6.14;79.80
69909;BME280;57190;47.918;8.112;2022-11-15T01:41:04;90582.75;;;6.21;80.14
69909;BME280;57190;47.918;8.112;2022-11-15T01:43:31;90587.03;;;6.27;79.77
69909;BME280;57190;47.918;8.112;2022-11-15T01:46:02;90579.97;;;6.33;79.94
69909;BME280;57190;47.918;8.112;2022-11-15T01:48:34;90583.41;;;6.34;79.45
69909;BME280;57190;47.918;8.112;2022-11-15T01:51:03;90583.66;;;6.32;80.34
69909;BME280;57190;47.918;8.112;2022-11-15T01:53:32;90574.97;;;6.37;81.19
69909;BME280;57190;47.918;8.112;2022-11-15T01:56:02;90584.50;;;6.38;80.94
69909;BME280;57190;47.918;8.112;2022-11-15T01:58:28;90562.53;;;6.37;81.26
69909;BME280;57190;47.918;8.112;2022-11-15T02:00:54;90562.47;;;6.32;81.51
69909;BME280;57190;47.918;8.112;2022-11-15T02:03:20;90565.84;;;6.27;81.02
69909;BME280;57190;47.918;8.112;2022-11-15T02:05:49;90566.59;;;6.23;81.94
69909;BME280;57190;47.918;8.112;2022-11-15T02:08:15;90559.38;;;6.18;81.69
69909;BME280;57190;47.918;8.112;2022-11-15T02:10:45;90555.47;;;6.21;82.13
69909;BME280;57190;47.918;8.112;2022-11-15T02:13:13;90554.38;;;6.22;82.00
69909;BME280;57190;47.918;8.112;2022-11-15T02:15:47;90547.81;;;6.24;82.47
69909;BME280;57190;47.918;8.112;2022-11-15T02:18:26;90532.72;;;6.25;82.26
69909;BME280;57190;47.918;8.112;2022-11-15T02:24:35;90533.31;;;6.32;82.29
69909;BME280;57190;47.918;8.112;2022-11-15T02:33:01;90521.78;;;6.43;81.96
69909;BME280;57190;47.918;8.112;2022-11-15T02:35:46;90518.84;;;6.40;81.91
69909;BME280;57190;47.918;8.112;2022-11-15T02:38:58;90516.69;;;6.37;82.92
69909;BME280;57190;47.918;8.112;2022-11-15T02:41:13;90514.59;;;6.39;82.23
69909;BME280;57190;47.918;8.112;2022-11-15T02:43:48;90514.03;;;6.37;81.97
69909;BME280;57190;47.918;8.112;2022-11-15T02:49:18;90519.03;;;6.33;82.35
69909;BME280;57190;47.918;8.112;2022-11-15T02:51:47;90511.34;;;6.32;82.99
69909;BME280;57190;47.918;8.112;2022-11-15T02:54:18;90508.13;;;6.29;82.38
69909;BME280;57190;47.918;8.112;2022-11-15T02:56:45;90510.97;;;6.23;83.61
69909;BME280;57190;47.918;8.112;2022-11-15T03:04:50;90511.66;;;6.13;83.30
69909;BME280;57190;47.918;8.112;2022-11-15T03:10:02;90515.22;;;6.24;84.18
69909;BME280;57190;47.918;8.112;2022-11-15T03:12:38;90512.66;;;6.29;83.57
69909;BME280;57190;47.918;8.112;2022-11-15T03:15:17;90510.28;;;6.33;83.99
69909;BME280;57190;47.918;8.112;2022-11-15T03:18:00;90510.28;;;6.33;83.60
69909;BME280;57190;47.918;8.112;2022-11-15T03:20:27;90511.91;;;6.34;84.52
69909;BME280;57190;47.918;8.112;2022-11-15T03:22:58;90515.38;;;6.39;84.02
69909;BME280;57190;47.918;8.112;2022-11-15T03:25:26;90511.44;;;6.42;84.06
69909;BME280;57190;47.918;8.112;2022-11-15T03:27:55;90509.59;;;6.42;83.98
69909;BME280;57190;47.918;8.112;2022-11-15T03:30:23;90500.84;;;6.42;83.97
69909;BME280;57190;47.918;8.112;2022-11-15T03:32:56;90494.47;;;6.43;83.83
69909;BME280;57190;47.918;8.112;2022-11-15T03:35:27;90496.06;;;6.44;84.50
69909;BME280;57190;47.918;8.112;2022-11-15T03:38:03;90490.56;;;6.45;84.46
69909;BME280;57190;47.918;8.112;2022-11-15T03:40:39;90490.28;;;6.47;85.16
69909;BME280;57190;47.918;8.112;2022-11-15T03:46:07;90484.28;;;6.57;84.57
69909;BME280;57190;47.918;8.112;2022-11-15T03:48:37;90486.16;;;6.61;84.98
69909;BME280;57190;47.918;8.112;2022-11-15T03:51:05;90480.38;;;6.65;84.12
69909;BME280;57190;47.918;8.112;2022-11-15T03:53:31;90482.22;;;6.64;84.10
69909;BME280;57190;47.918;8.112;2022-11-15T03:55:57;90485.41;;;6.66;84.56
69909;BME280;57190;47.918;8.112;2022-11-15T03:58:22;90485.47;;;6.71;84.49
69909;BME280;57190;47.918;8.112;2022-11-15T04:00:48;90477.81;;;6.75;84.62
69909;BME280;57190;47.918;8.112;2022-11-15T04:03:13;90482.84;;;6.76;84.76
69909;BME280;57190;47.918;8.112;2022-11-15T04:05:39;90480.69;;;6.73;85.05
69909;BME280;57190;47.918;8.112;2022-11-15T04:08:04;90472.50;;;6.75;85.16
69909;BME280;57190;47.918;8.112;2022-11-15T04:10:30;90472.50;;;6.75;84.96
69909;BME280;57190;47.918;8.112;2022-11-15T04:12:55;90475.41;;;6.73;85.35
69909;BME280;57190;47.918;8.112;2022-11-15T04:15:23;90477.75;;;6.70;85.45
69909;BME280;57190;47.918;8.112;2022-11-15T04:17:51;90476.69;;;6.66;85.48
69909;BME280;57190;47.918;8.112;2022-11-15T04:23:13;90465.13;;;6.50;86.29
69909;BME280;57190;47.918;8.112;2022-11-15T04:26:00;90458.78;;;6.51;86.20
69909;BME280;57190;47.918;8.112;2022-11-15T04:28:26;90462.78;;;6.53;86.26
69909;BME280;57190;47.918;8.112;2022-11-15T04:30:52;90462.84;;;6.58;86.28
69909;BME280;57190;47.918;8.112;2022-11-15T04:33:18;90469.22;;;6.63;86.04
69909;BME280;57190;47.918;8.112;2022-11-15T04:35:44;90464.75;;;6.68;86.04
69909;BME280;57190;47.918;8.112;2022-11-15T04:38:29;90464.56;;;6.75;85.90
69909;BME280;57190;47.918;8.112;2022-11-15T04:40:55;90459.78;;;6.77;85.12
69909;BME280;57190;47.918;8.112;2022-11-15T04:43:20;90448.19;;;6.83;84.93
69909;BME280;57190;47.918;8.112;2022-11-15T04:45:46;90459.66;;;6.94;84.22
69909;BME280;57190;47.918;8.112;2022-11-15T04:48:11;90445.91;;;7.02;84.04
69909;BME280;57190;47.918;8.112;2022-11-15T04:50:37;90451.50;;;7.06;82.96
69909;BME280;57190;47.918;8.112;2022-11-15T04:53:02;90442.78;;;7.11;83.00
69909;BME280;57190;47.918;8.112;2022-11-15T04:55:28;90449.41;;;7.08;82.84
69909;BME280;57190;47.918;8.112;2022-11-15T04:58:00;90456.31;;;7.09;82.62
69909;BME280;57190;47.918;8.112;2022-11-15T05:00:29;90449.94;;;7.10;83.01
69909;BME280;57190;47.918;8.112;2022-11-15T05:02:56;90451.78;;;7.10;82.80
69909;BME280;57190;47.918;8.112;2022-11-15T05:05:40;90451.00;;;7.09;82.79
69909;BME280;57190;47.918;8.112;2022-11-15T05:08:05;90449.69;;;7.12;82.36
69909;BME280;57190;47.918;8.112;2022-11-15T05:10:31;90443.28;;;7.07;82.78
69909;BME280;57190;47.918;8.112;2022-11-15T05:12:56;90442.25;;;7.08;82.37
69909;BME280;57190;47.918;8.112;2022-11-15T05:15:22;90440.91;;;7.11;82.41
69909;BME280;57190;47.918;8.112;2022-11-15T05:17:47;90446.22;;;7.11;81.97
69909;BME280;57190;47.918;8.112;2022-11-15T05:20:13;90439.38;;;7.15;81.67
69909;BME280;57190;47.918;8.112;2022-11-15T05:22:39;90437.50;;;7.16;81.57
69909;BME280;57190;47.918;8.112;2022-11-15T05:25:05;90438.84;;;7.18;80.98
69909;BME280;57190;47.918;8.112;2022-11-15T05:27:32;90429.06;;;7.24;80.93
69909;BME280;57190;47.918;8.112;2022-11-15T05:29:57;90426.16;;;7.26;80.68
69909;BME280;57190;47.918;8.112;2022-11-15T05:32:23;90424.81;;;7.23;80.65
69909;BME280;57190;47.918;8.112;2022-11-15T05:34:49;90419.50;;;7.23;80.82
69909;BME280;57190;47.918;8.112;2022-11-15T05:37:15;90415.56;;;7.26;80.60
69909;BME280;57190;47.918;8.112;2022-11-15T05:39:41;90427.75;;;7.27;80.60
69909;BME280;57190;47.918;8.112;2022-11-15T05:42:09;90419.53;;;7.28;80.73
69909;BME280;57190;47.918;8.112;2022-11-15T05:44:36;90412.09;;;7.25;81.03
69909;BME280;57190;47.918;8.112;2022-11-15T05:47:04;90415.56;;;7.26;81.36
69909;BME280;57190;47.918;8.112;2022-11-15T05:49:35;90414.19;;;7.23;81.49
69909;BME280;57190;47.918;8.112;2022-11-15T05:52:05;90398.03;;;7.24;81.38
69909;BME280;57190;47.918;8.112;2022-11-15T05:54:33;90394.06;;;7.27;80.99
69909;BME280;57190;47.918;8.112;2022-11-15T05:57:00;90372.56;;;7.29;81.50
69909;BME280;57190;47.918;8.112;2022-11-15T05:59:29;90364.94;;;7.37;80.46
69909;BME280;57190;47.918;8.112;2022-11-15T06:01:56;90361.22;;;7.44;80.00
69909;BME280;57190;47.918;8.112;2022-11-15T06:04:21;90372.13;;;7.47;79.98
69909;BME280;57190;47.918;8.112;2022-11-15T06:06:46;90374.28;;;7.50;80.04
69909;BME280;57190;47.918;8.112;2022-11-15T06:09:12;90371.34;;;7.47;80.17
69909;BME280;57190;47.918;8.112;2022-11-15T06:11:37;90372.91;;;7.43;80.41
69909;BME280;57190;47.918;8.112;2022-11-15T06:14:03;90374.78;;;7.42;80.50
69909;BME280;57190;47.918;8.112;2022-11-15T06:16:28;90381.63;;;7.38;80.87
69909;BME280;57190;47.918;8.112;2022-11-15T06:18:54;90380.88;;;7.43;80.30
69909;BME280;57190;47.918;8.112;2022-11-15T06:21:19;90365.22;;;7.46;80.11
69909;BME280;57190;47.918;8.112;2022-11-15T06:23:45;90364.97;;;7.53;79.68
69909;BME280;57190;47.918;8.112;2022-11-15T06:26:10;90367.38;;;7.60;79.56
69909;BME280;57190;47.918;8.112;2022-11-15T06:28:36;90364.75;;;7.65;79.28
69909;BME280;57190;47.918;8.112;2022-11-15T06:31:06;90367.16;;;7.71;79.00
69909;BME280;57190;47.918;8.112;2022-11-15T06:33:32;90368.22;;;7.76;78.75
69909;BME280;57190;47.918;8.112;2022-11-15T06:36:05;90368.53;;;7.84;78.81
69909;BME280;57190;47.918;8.112;2022-11-15T06:38:31;90366.72;;;8.21;78.99
69909;BME280;57190;47.918;8.112;2022-11-15T06:41:04;90365.66;;;8.17;77.38
69909;BME280;57190;47.918;8.112;2022-11-15T06:43:30;90369.63;;;8.09;77.57
69909;BME280;57190;47.918;8.112;2022-11-15T06:45:58;90368.81;;;7.98;78.55
69909;BME280;57190;47.918;8.112;2022-11-15T06:48:24;90368.25;;;7.91;78.83
69909;BME280;57190;47.918;8.112;2022-11-15T06:50:53;90367.47;;;7.91;78.97
69909;BME280;57190;47.918;8.112;2022-11-15T06:53:19;90375.72;;;7.99;78.55
69909;BME280;57190;47.918;8.112;2022-11-15T06:55:44;90375.47;;;8.11;78.32
69909;BME280;57190;47.918;8.112;2022-11-15T06:58:10;90368.59;;;8.26;77.43
69909;BME280;57190;47.918;8.112;2022-11-15T07:00:36;90378.16;;;8.27;77.55
69909;BME280;57190;47.918;8.112;2022-11-15T07:03:02;90379.72;;;8.23;78.05
69909;BME280;57190;47.918;8.112;2022-11-15T07:05:27;90381.06;;;8.20;78.36
69909;BME280;57190;47.918;8.112;2022-11-15T07:07:54;90369.38;;;8.21;78.08
69909;BME280;57190;47.918;8.112;2022-11-15T07:10:21;90370.97;;;8.22;77.43
69909;BME280;57190;47.918;8.112;2022-11-15T07:12:50;90382.94;;;8.25;77.13
69909;BME280;57190;47.918;8.112;2022-11-15T07:15:17;90380.00;;;8.26;77.45
69909;BME280;57190;47.918;8.112;2022-11-15T07:17:42;90372.28;;;8.14;78.25
69909;BME280;57190;47.918;8.112;2022-11-15T07:20:08;90377.31;;;8.16;77.98
69909;BME280;57190;47.918;8.112;2022-11-15T07:22:34;90380.78;;;8.22;77.61
69909;BME280;57190;47.918;8.112;2022-11-15T07:25:00;90381.09;;;8.30;77.20
69909;BME280;57190;47.918;8.112;2022-11-15T07:27:25;90382.94;;;8.35;76.75
69909;BME280;57190;47.918;8.112;2022-11-15T07:29:50;90374.94;;;8.30;77.16
69909;BME280;57190;47.918;8.112;2022-11-15T07:32:16;90387.97;;;8.21;78.25
69909;BME280;57190;47.918;8.112;2022-11-15T07:34:41;90377.06;;;8.12;78.59
69909;BME280;57190;47.918;8.112;2022-11-15T07:37:08;90379.72;;;8.12;79.05
69909;BME280;57190;47.918;8.112;2022-11-15T07:39:33;90381.59;;;8.17;79.08
69909;BME280;57190;47.918;8.112;2022-11-15T07:41:59;90379.47;;;8.24;78.72
69909;BME280;57190;47.918;8.112;2022-11-15T07:44:43;90387.72;;;8.33;78.31
69909;BME280;57190;47.918;8.112;2022-11-15T07:47:09;90389.59;;;8.38;77.84
69909;BME280;57190;47.918;8.112;2022-11-15T07:49:34;90394.63;;;8.34;77.57
69909;BME280;57190;47.918;8.112;2022-11-15T07:52:00;90390.09;;;8.34;77.84
69909;BME280;57190;47.918;8.112;2022-11-15T07:54:25;90391.44;;;8.37;77.04
69909;BME280;57190;47.918;8.112;2022-11-15T07:56:51;90392.28;;;8.53;76.19
69909;BME280;57190;47.918;8.112;2022-11-15T07:59:16;90388.56;;;8.64;76.12
69909;BME280;57190;47.918;8.112;2022-11-15T08:01:42;90398.66;;;8.73;76.27
69909;BME280;57190;47.918;8.112;2022-11-15T08:04:07;90398.66;;;8.88;75.75
69909;BME280;57190;47.918;8.112;2022-11-15T08:06:33;90391.16;;;9.01;75.32
69909;BME280;57190;47.918;8.112;2022-11-15T08:08:58;90391.97;;;9.01;75.33
69909;BME280;57190;47.918;8.112;2022-11-15T08:11:23;90392.75;;;9.02;76.11
69909;BME280;57190;47.918;8.112;2022-11-15T08:13:49;90397.03;;;9.03;76.39
69909;BME280;57190;47.918;8.112;2022-11-15T08:16:14;90394.09;;;9.09;75.57
69909;BME280;57190;47.918;8.112;2022-11-15T08:18:40;90387.97;;;9.09;75.23
69909;BME280;57190;47.918;8.112;2022-11-15T08:21:05;90394.09;;;9.09;76.39
69909;BME280;57190;47.918;8.112;2022-11-15T08:23:31;90386.63;;;9.11;75.81
69909;BME280;57190;47.918;8.112;2022-11-15T08:26:03;90395.94;;;9.09;76.30
69909;BME280;57190;47.918;8.112;2022-11-15T08:28:30;90388.50;;;9.06;76.26
69909;BME280;57190;47.918;8.112;2022-11-15T08:30:55;90383.97;;;9.06;76.33
69909;BME280;57190;47.918;8.112;2022-11-15T08:33:21;90394.34;;;9.08;76.86
69909;BME280;57190;47.918;8.112;2022-11-15T08:35:46;90391.69;;;9.13;75.93
69909;BME280;57190;47.918;8.112;2022-11-15T08:38:12;90386.88;;;9.15;75.61
69909;BME280;57190;47.918;8.112;2022-11-15T08:40:38;90387.16;;;9.19;75.64
69909;BME280;57190;47.918;8.112;2022-11-15T08:43:04;90380.50;;;9.21;75.92
69909;BME280;57190;47.918;8.112;2022-11-15T08:45:30;90379.13;;;9.29;76.13
69909;BME280;57190;47.918;8.112;2022-11-15T08:47:56;90385.78;;;9.37;75.18
69909;BME280;57190;47.918;8.112;2022-11-15T08:50:22;90381.47;;;9.46;74.59
69909;BME280;57190;47.918;8.112;2022-11-15T08:52:48;90380.09;;;9.54;74.33
69909;BME280;57190;47.918;8.112;2022-11-15T08:55:13;90369.47;;;9.59;74.21
69909;BME280;57190;47.918;8.112;2022-11-15T08:57:39;90372.34;;;9.68;74.50
69909;BME280;57190;47.918;8.112;2022-11-15T09:00:05;90366.47;;;9.71;73.54
69909;BME280;57190;47.918;8.112;2022-11-15T09:02:31;90364.34;;;9.73;72.75
69909;BME280;57190;47.918;8.112;2022-11-15T09:04:57;90364.34;;;9.73;72.76
69909;BME280;57190;47.918;8.112;2022-11-15T09:07:22;90367.25;;;9.71;72.53
69909;BME280;57190;47.918;8.112;2022-11-15T09:09:48;90363.31;;;9.64;72.97
69909;BME280;57190;47.918;8.112;2022-11-15T09:12:13;90361.16;;;9.66;71.77
69909;BME280;57190;47.918;8.112;2022-11-15T09:14:39;90359.84;;;9.63;72.10
69909;BME280;57190;47.918;8.112;2022-11-15T09:17:07;90360.94;;;9.57;71.70
69909;BME280;57190;47.918;8.112;2022-11-15T09:19:34;90374.78;;;9.59;70.95
69909;BME280;57190;47.918;8.112;2022-11-15T09:21:59;90360.94;;;9.57;72.15
69909;BME280;57190;47.918;8.112;2022-11-15T09:24:25;90358.81;;;9.59;71.72
69909;BME280;57190;47.918;8.112;2022-11-15T09:26:51;90354.25;;;9.65;71.60
69909;BME280;57190;47.918;8.112;2022-11-15T09:29:17;90357.41;;;9.67;71.59
69909;BME280;57190;47.918;8.112;2022-11-15T09:31:42;90358.19;;;9.72;71.02
69909;BME280;57190;47.918;8.112;2022-11-15T09:34:08;90360.31;;;9.75;70.78
69909;BME280;57190;47.918;8.112;2022-11-15T09:36:34;90364.06;;;9.74;70.24
69909;BME280;57190;47.918;8.112;2022-11-15T09:38:59;90367.50;;;9.75;71.25
69909;BME280;57190;47.918;8.112;2022-11-15T09:46:50;90361.41;;;9.74;70.42
69909;BME280;57190;47.918;8.112;2022-11-15T09:49:22;90368.03;;;9.77;71.26
69909;BME280;57190;47.918;8.112;2022-11-15T09:51:49;90365.09;;;9.79;71.44
69909;BME280;57190;47.918;8.112;2022-11-15T09:54:35;90368.03;;;9.77;72.09
69909;BME280;57190;47.918;8.112;2022-11-15T09:57:12;90367.50;;;9.80;72.09
69909;BME280;57190;47.918;8.112;2022-11-15T10:05:18;90361.91;;;9.77;71.73
69909;BME280;57190;47.918;8.112;2022-11-15T10:10:44;90353.94;;;9.71;70.48
69909;BME280;57190;47.918;8.112;2022-11-15T10:13:33;90349.44;;;9.72;70.76
69909;BME280;57190;47.918;8.112;2022-11-15T10:16:31;90348.34;;;9.73;70.25
69909;BME280;57190;47.918;8.112;2022-11-15T10:19:06;90346.72;;;9.77;70.09
69909;BME280;57190;47.918;8.112;2022-11-15T10:21:40;90343.53;;;9.75;70.77
69909;BME280;57190;47.918;8.112;2022-11-15T10:24:12;90342.75;;;9.74;70.69
69909;BME280;57190;47.918;8.112;2022-11-15T10:26:46;90332.34;;;9.78;71.51
69909;BME280;57190;47.918;8.112;2022-11-15T10:29:18;90336.59;;;9.79;70.51
69909;BME280;57190;47.918;8.112;2022-11-15T10:31:44;90339.50;;;9.83;70.03
69909;BME280;57190;47.918;8.112;2022-11-15T10:34:20;90329.88;;;9.87;68.99
69909;BME280;57190;47.918;8.112;2022-11-15T10:36:58;90328.00;;;9.93;69.24
69909;BME280;57190;47.918;8.112;2022-11-15T10:39:24;90327.72;;;9.94;70.46
69909;BME280;57190;47.918;8.112;2022-11-15T10:41:50;90323.00;;;9.86;69.62
69909;BME280;57190;47.918;8.112;2022-11-15T10:44:31;90327.47;;;9.90;69.68
69909;BME280;57190;47.918;8.112;2022-11-15T10:47:07;90313.88;;;9.92;69.87
69909;BME280;57190;47.918;8.112;2022-11-15T10:49:57;90309.09;;;9.94;69.27
69909;BME280;57190;47.918;8.112;2022-11-15T10:52:23;90314.66;;;9.93;68.64
69909;BME280;57190;47.918;8.112;2022-11-15T10:57:37;90302.41;;;9.91;68.61
69909;BME280;57190;47.918;8.112;2022-11-15T11:03:20;90302.16;;;9.93;67.69
69909;BME280;57190;47.918;8.112;2022-11-15T11:05:37;90302.13;;;9.98;68.14
69909;BME280;57190;47.918;8.112;2022-11-15T11:10:56;90304.97;;;10.12;67.79
69909;BME280;57190;47.918;8.112;2022-11-15T11:13:24;90300.66;;;10.16;68.63
69909;BME280;57190;47.918;8.112;2022-11-15T11:21:49;90282.75;;;10.22;70.08
69909;BME280;57190;47.918;8.112;2022-11-15T11:24:26;90272.69;;;10.14;70.66
69909;BME280;57190;47.918;8.112;2022-11-15T11:35:20;90267.53;;;9.88;70.09
69909;BME280;57190;47.918;8.112;2022-11-15T11:37:54;90259.06;;;9.86;70.13
69909;BME280;57190;47.918;8.112;2022-11-15T11:40:34;90255.00;;;9.94;69.64
69909;BME280;57190;47.918;8.112;2022-11-15T11:43:13;90253.88;;;10.00;69.78
69909;BME280;57190;47.918;8.112;2022-11-15T11:49:08;90240.72;;;10.14;69.43
69909;BME280;57190;47.918;8.112;2022-11-15T11:51:45;90253.19;;;10.18;69.43
69909;BME280;57190;47.918;8.112;2022-11-15T11:56:43;90241.94;;;10.27;69.11
69909;BME280;57190;47.918;8.112;2022-11-15T12:02:11;90234.47;;;10.29;69.57
69909;BME280;57190;47.918;8.112;2022-11-15T12:04:43;90223.81;;;10.29;69.48
69909;BME280;57190;47.918;8.112;2022-11-15T12:07:19;90221.91;;;10.29;69.47
69909;BME280;57190;47.918;8.112;2022-11-15T12:09:58;90217.09;;;10.31;69.38
69909;BME280;57190;47.918;8.112;2022-11-15T12:12:44;90209.09;;;10.36;69.13
69909;BME280;57190;47.918;8.112;2022-11-15T12:15:16;90207.75;;;10.39;68.74
69909;BME280;57190;47.918;8.112;2022-11-15T12:17:44;90194.06;;;10.46;68.74
69909;BME280;57190;47.918;8.112;2022-11-15T12:20:21;90194.81;;;10.51;68.92
69909;BME280;57190;47.918;8.112;2022-11-15T12:23:01;90190.56;;;10.50;68.46
69909;BME280;57190;47.918;8.112;2022-11-15T12:28:45;90184.38;;;10.55;67.91
69909;BME280;57190;47.918;8.112;2022-11-15T12:31:47;90180.47;;;10.47;67.35
69909;BME280;57190;47.918;8.112;2022-11-15T12:34:28;90175.63;;;10.49;67.09
69909;BME280;57190;47.918;8.112;2022-11-15T12:36:54;90172.94;;;10.54;66.62
69909;BME280;57190;47.918;8.112;2022-11-15T12:39:20;90169.97;;;10.56;66.46
69909;BME280;57190;47.918;8.112;2022-11-15T12:47:25;90157.59;;;10.65;66.28
69909;BME280;57190;47.918;8.112;2022-11-15T12:49:51;90151.72;;;10.68;66.64
69909;BME280;57190;47.918;8.112;2022-11-15T12:52:17;90150.41;;;10.66;66.43
69909;BME280;57190;47.918;8.112;2022-11-15T12:59:54;90146.81;;;10.76;67.01
69909;BME280;57190;47.918;8.112;2022-11-15T13:02:35;90149.19;;;10.77;66.48
69909;BME280;57190;47.918;8.112;2022-11-15T13:17:47;90136.66;;;10.78;65.37
69909;BME280;57190;47.918;8.112;2022-11-15T13:27:48;90110.09;;;10.67;65.69
69909;BME280;57190;47.918;8.112;2022-11-15T13:30:27;90112.38;;;10.55;65.91
69909;BME280;57190;47.918;8.112;2022-11-15T13:32:53;90106.44;;;10.39;65.06
69909;BME280;57190;47.918;8.112;2022-11-15T13:35:31;90102.56;;;10.26;65.56
69909;BME280;57190;47.918;8.112;2022-11-15T13:38:03;90093.59;;;10.17;65.42
69909;BME280;57190;47.918;8.112;2022-11-15T13:40:35;90089.66;;;10.09;66.76
69909;BME280;57190;47.918;8.112;2022-11-15T13:43:38;90078.78;;;10.05;66.89
69909;BME280;57190;47.918;8.112;2022-11-15T13:46:10;90079.34;;;10.02;67.53
69909;BME280;57190;47.918;8.112;2022-11-15T13:48:37;90072.44;;;10.01;68.18
69909;BME280;57190;47.918;8.112;2022-11-15T13:51:14;90071.38;;;10.02;68.36
69909;BME280;57190;47.918;8.112;2022-11-15T13:53:47;90064.91;;;10.09;67.64
69909;BME280;57190;47.918;8.112;2022-11-15T13:56:16;90063.31;;;10.07;67.63
69909;BME280;57190;47.918;8.112;2022-11-15T13:58:44;90067.59;;;10.03;67.57
69909;BME280;57190;47.918;8.112;2022-11-15T14:01:15;90067.66;;;9.98;67.77
69909;BME280;57190;47.918;8.112;2022-11-15T14:03:49;90069.59;;;9.93;68.57
69909;BME280;57190;47.918;8.112;2022-11-15T14:06:18;90075.50;;;9.89;68.61
69909;BME280;57190;47.918;8.112;2022-11-15T14:11:32;90074.53;;;9.75;68.75
69909;BME280;57190;47.918;8.112;2022-11-15T14:14:19;90064.47;;;9.72;68.88
69909;BME280;57190;47.918;8.112;2022-11-15T14:16:47;90062.59;;;9.72;69.07
69909;BME280;57190;47.918;8.112;2022-11-15T14:19:34;90068.44;;;9.74;69.71
69909;BME280;57190;47.918;8.112;2022-11-15T14:22:31;90064.97;;;9.74;69.53
69909;BME280;57190;47.918;8.112;2022-11-15T14:25:16;90058.63;;;9.70;70.02
69909;BME280;57190;47.918;8.112;2022-11-15T14:27:43;90046.59;;;9.72;69.32
69909;BME280;57190;47.918;8.112;2022-11-15T14:30:16;90047.69;;;9.71;68.12
69909;BME280;57190;47.918;8.112;2022-11-15T14:32:46;90050.09;;;9.73;68.02
69909;BME280;57190;47.918;8.112;2022-11-15T14:35:16;90044.13;;;9.81;68.16
69909;BME280;57190;47.918;8.112;2022-11-15T14:37:43;90037.91;;;9.91;68.18
69909;BME280;57190;47.918;8.112;2022-11-15T14:40:12;90038.69;;;9.91;66.75
69909;BME280;57190;47.918;8.112;2022-11-15T14:42:39;90035.19;;;9.96;67.98
69909;BME280;57190;47.918;8.112;2022-11-15T14:45:21;90031.00;;;9.90;67.43
69909;BME280;57190;47.918;8.112;2022-11-15T14:47:47;90028.94;;;9.82;68.30
69909;BME280;57190;47.918;8.112;2022-11-15T14:50:13;90024.53;;;9.72;67.37
69909;BME280;57190;47.918;8.112;2022-11-15T14:52:40;90023.50;;;9.68;67.39
69909;BME280;57190;47.918;8.112;2022-11-15T14:55:32;90023.84;;;9.61;67.82
69909;BME280;57190;47.918;8.112;2022-11-15T14:58:00;90019.84;;;9.58;68.67
69909;BME280;57190;47.918;8.112;2022-11-15T15:00:28;90025.75;;;9.55;69.01
69909;BME280;57190;47.918;8.112;2022-11-15T15:02:54;90016.44;;;9.53;69.32
69909;BME280;57190;47.918;8.112;2022-11-15T15:05:23;90009.03;;;9.50;69.22
69909;BME280;57190;47.918;8.112;2022-11-15T15:07:49;90017.94;;;9.64;70.50
69909;BME280;57190;47.918;8.112;2022-11-15T15:10:16;90017.91;;;9.69;69.18